sensor_id;sensor_type;location;lat;lon;timestamp;pressure;altitude;pressure_sealevel;temperature;humidity
39793;BME280;26080;42.264;24.536;2024-03-08T00:00:14;99458.47;;;5.85;100.00
39793;BME280;26080;42.264;24.536;2024-03-08T00:02:40;99451.66;;;5.81;100.00
39793;BME280;26080;42.264;24.536;2024-03-08T00:05:07;99455.25;;;5.77;100.00
39793;BME280;26080;42.264;24.536;2024-03-08T00:07:39;99446.59;;;5.75;100.00
39793;BME280;26080;42.264;24.536;2024-03-08T00:10:06;99450.16;;;5.72;100.00
39793;BME280;26080;42.264;24.536;2024-03-08T00:12:39;99417.66;;;5.56;100.00
39793;BME280;26080;42.264;24.536;2024-03-08T00:15:08;99442.25;;;5.75;100.00
39793;BME280;26080;42.264;24.536;2024-03-08T00:17:34;99444.00;;;5.76;100.00
39793;BME280;26080;42.264;24.536;2024-03-08T00:20:00;99411.28;;;5.68;100.00
39793;BME280;26080;42.264;24.536;2024-03-08T00:22:25;99412.19;;;5.67;100.00
39793;BME280;26080;42.264;24.536;2024-03-08T00:24:51;99436.03;;;5.82;100.00
39793;BME280;26080;42.264;24.536;2024-03-08T00:27:16;99434.09;;;5.89;100.00
39793;BME280;26080;42.264;24.536;2024-03-08T00:29:41;99428.94;;;5.90;100.00
39793;BME280;26080;42.264;24.536;2024-03-08T00:32:07;99428.81;;;5.95;100.00
39793;BME280;26080;42.264;24.536;2024-03-08T00:34:36;99438.25;;;5.98;100.00
39793;BME280;26080;42.264;24.536;2024-03-08T00:37:04;99430.25;;;6.05;100.00
39793;BME280;26080;42.264;24.536;2024-03-08T00:39:30;99427.53;;;6.10;100.00
39793;BME280;26080;42.264;24.536;2024-03-08T00:41:56;99422.41;;;6.07;100.00
39793;BME280;26080;42.264;24.536;2024-03-08T00:44:21;99400.31;;;5.89;100.00
39793;BME280;26080;42.264;24.536;2024-03-08T00:46:46;99424.22;;;6.05;100.00
39793;BME280;26080;42.264;24.536;2024-03-08T00:49:12;99424.16;;;6.06;100.00
39793;BME280;26080;42.264;24.536;2024-03-08T00:51:38;99395.22;;;5.86;100.00
39793;BME280;26080;42.264;24.536;2024-03-08T00:54:03;99425.78;;;6.10;100.00
39793;BME280;26080;42.264;24.536;2024-03-08T00:56:29;99426.50;;;6.15;100.00
39793;BME280;26080;42.264;24.536;2024-03-08T00:58:54;99417.91;;;6.13;100.00
39793;BME280;26080;42.264;24.536;2024-03-08T01:01:19;99417.09;;;6.11;100.00
39793;BME280;26080;42.264;24.536;2024-03-08T01:03:45;99428.16;;;6.19;100.00
39793;BME280;26080;42.264;24.536;2024-03-08T01:06:10;99434.28;;;6.17;100.00
39793;BME280;26080;42.264;24.536;2024-03-08T01:08:37;99427.25;;;6.20;100.00
39793;BME280;26080;42.264;24.536;2024-03-08T01:11:06;99423.78;;;6.20;100.00
39793;BME280;26080;42.264;24.536;2024-03-08T01:13:32;99401.72;;;6.02;100.00
39793;BME280;26080;42.264;24.536;2024-03-08T01:15:57;99423.88;;;6.17;100.00
39793;BME280;26080;42.264;24.536;2024-03-08T01:18:22;99391.59;;;5.93;100.00
39793;BME280;26080;42.264;24.536;2024-03-08T01:20:48;99422.50;;;6.04;100.00
39793;BME280;26080;42.264;24.536;2024-03-08T01:23:13;99422.53;;;6.02;100.00
39793;BME280;26080;42.264;24.536;2024-03-08T01:25:39;99414.78;;;6.01;100.00
39793;BME280;26080;42.264;24.536;2024-03-08T01:28:05;99409.91;;;5.87;100.00
39793;BME280;26080;42.264;24.536;2024-03-08T01:30:30;99415.06;;;5.88;100.00
39793;BME280;26080;42.264;24.536;2024-03-08T01:32:58;99417.78;;;5.84;100.00
39793;BME280;26080;42.264;24.536;2024-03-08T01:35:24;99415.09;;;5.87;100.00
39793;BME280;26080;42.264;24.536;2024-03-08T01:37:51;99413.34;;;5.90;100.00
39793;BME280;26080;42.264;24.536;2024-03-08T01:40:17;99422.56;;;6.01;100.00
39793;BME280;26080;42.264;24.536;2024-03-08T01:42:42;99425.88;;;6.07;100.00
39793;BME280;26080;42.264;24.536;2024-03-08T01:45:08;99434.34;;;6.14;100.00
39793;BME280;26080;42.264;24.536;2024-03-08T01:47:34;99435.19;;;6.14;100.00
39793;BME280;26080;42.264;24.536;2024-03-08T01:50:01;99430.78;;;6.18;100.00
39793;BME280;26080;42.264;24.536;2024-03-08T01:52:29;99430.66;;;6.22;100.00
39793;BME280;26080;42.264;24.536;2024-03-08T01:54:58;99424.38;;;6.30;100.00
39793;BME280;26080;42.264;24.536;2024-03-08T01:57:26;99426.22;;;6.26;100.00
39793;BME280;26080;42.264;24.536;2024-03-08T01:59:52;99433.16;;;6.26;100.00
39793;BME280;26080;42.264;24.536;2024-03-08T02:02:21;99402.47;;;6.07;100.00
39793;BME280;26080;42.264;24.536;2024-03-08T02:04:47;99407.59;;;6.10;100.00
39793;BME280;26080;42.264;24.536;2024-03-08T02:07:12;99427.25;;;6.20;100.00
39793;BME280;26080;42.264;24.536;2024-03-08T02:09:38;99427.88;;;6.29;100.00
39793;BME280;26080;42.264;24.536;2024-03-08T02:12:05;99424.66;;;6.20;100.00
39793;BME280;26080;42.264;24.536;2024-03-08T02:14:30;99429.75;;;6.23;100.00
39793;BME280;26080;42.264;24.536;2024-03-08T02:17:00;99423.69;;;6.23;100.00
39793;BME280;26080;42.264;24.536;2024-03-08T02:19:25;99428.94;;;6.21;100.00
39793;BME280;26080;42.264;24.536;2024-03-08T02:21:51;99429.84;;;6.20;100.00
39793;BME280;26080;42.264;24.536;2024-03-08T02:24:16;99427.25;;;6.20;100.00
39793;BME280;26080;42.264;24.536;2024-03-08T02:26:42;99395.81;;;5.97;100.00
39793;BME280;26080;42.264;24.536;2024-03-08T02:29:08;99432.50;;;6.19;100.00
39793;BME280;26080;42.264;24.536;2024-03-08T02:31:34;99420.59;;;6.10;100.00
39793;BME280;26080;42.264;24.536;2024-03-08T02:33:59;99418.13;;;6.06;100.00
39793;BME280;26080;42.264;24.536;2024-03-08T02:36:24;99425.13;;;6.02;100.00
39793;BME280;26080;42.264;24.536;2024-03-08T02:38:50;99418.31;;;5.98;100.00
39793;BME280;26080;42.264;24.536;2024-03-08T02:41:15;99418.94;;;6.08;100.00
39793;BME280;26080;42.264;24.536;2024-03-08T02:43:41;99424.03;;;6.11;100.00
39793;BME280;26080;42.264;24.536;2024-03-08T02:46:06;99428.84;;;6.24;100.00
39793;BME280;26080;42.264;24.536;2024-03-08T02:48:31;99411.75;;;6.17;100.00
39793;BME280;26080;42.264;24.536;2024-03-08T02:50:57;99423.38;;;6.35;100.00
39793;BME280;26080;42.264;24.536;2024-03-08T02:53:22;99391.13;;;6.10;100.00
39793;BME280;26080;42.264;24.536;2024-03-08T02:55:49;99437.41;;;6.28;100.00
39793;BME280;26080;42.264;24.536;2024-03-08T02:58:15;99428.00;;;6.24;100.00
39793;BME280;26080;42.264;24.536;2024-03-08T03:00:40;99401.72;;;6.04;100.00
39793;BME280;26080;42.264;24.536;2024-03-08T03:03:06;99419.56;;;6.16;100.00
39793;BME280;26080;42.264;24.536;2024-03-08T03:05:32;99430.59;;;6.24;100.00
39793;BME280;26080;42.264;24.536;2024-03-08T03:07:58;99429.63;;;6.28;100.00
39793;BME280;26080;42.264;24.536;2024-03-08T03:10:24;99437.28;;;6.34;100.00
39793;BME280;26080;42.264;24.536;2024-03-08T03:12:51;99411.88;;;6.11;100.00
39793;BME280;26080;42.264;24.536;2024-03-08T03:15:17;99439.13;;;6.29;100.00
39793;BME280;26080;42.264;24.536;2024-03-08T03:17:49;99432.44;;;6.20;100.00
39793;BME280;26080;42.264;24.536;2024-03-08T03:20:18;99434.34;;;6.14;100.00
39793;BME280;26080;42.264;24.536;2024-03-08T03:22:58;99440.25;;;6.20;100.00
39793;BME280;26080;42.264;24.536;2024-03-08T03:25:23;99444.31;;;6.31;100.00
39793;BME280;26080;42.264;24.536;2024-03-08T03:27:52;99437.31;;;6.33;100.00
39793;BME280;26080;42.264;24.536;2024-03-08T03:30:17;99446.63;;;6.40;100.00
39793;BME280;26080;42.264;24.536;2024-03-08T03:32:51;99442.56;;;6.31;100.00
39793;BME280;26080;42.264;24.536;2024-03-08T03:35:18;99447.09;;;6.23;100.00
39793;BME280;26080;42.264;24.536;2024-03-08T03:37:45;99450.66;;;6.20;100.00
39793;BME280;26080;42.264;24.536;2024-03-08T03:40:29;99443.75;;;6.19;100.00
39793;BME280;26080;42.264;24.536;2024-03-08T03:42:55;99446.50;;;6.13;100.00
39793;BME280;26080;42.264;24.536;2024-03-08T03:45:20;99445.88;;;6.05;100.00
39793;BME280;26080;42.264;24.536;2024-03-08T03:47:46;99453.84;;;5.98;100.00
39793;BME280;26080;42.264;24.536;2024-03-08T03:50:11;99451.22;;;5.99;100.00
39793;BME280;26080;42.264;24.536;2024-03-08T03:52:37;99451.25;;;5.98;100.00
39793;BME280;26080;42.264;24.536;2024-03-08T03:55:03;99454.88;;;5.92;100.00
39793;BME280;26080;42.264;24.536;2024-03-08T03:57:30;99453.13;;;5.92;100.00
39793;BME280;26080;42.264;24.536;2024-03-08T03:59:55;99452.28;;;5.92;100.00
39793;BME280;26080;42.264;24.536;2024-03-08T04:02:22;99462.56;;;5.97;100.00
39793;BME280;26080;42.264;24.536;2024-03-08T04:04:47;99461.84;;;5.88;100.00
39793;BME280;26080;42.264;24.536;2024-03-08T04:07:13;99457.72;;;5.81;100.00
39793;BME280;26080;42.264;24.536;2024-03-08T04:09:38;99458.75;;;5.76;100.00
39793;BME280;26080;42.264;24.536;2024-03-08T04:12:04;99425.41;;;5.57;100.00
39793;BME280;26080;42.264;24.536;2024-03-08T04:14:30;99463.91;;;5.77;100.00
39793;BME280;26080;42.264;24.536;2024-03-08T04:16:55;99457.84;;;5.77;100.00
39793;BME280;26080;42.264;24.536;2024-03-08T04:19:22;99451.94;;;5.70;100.00
39793;BME280;26080;42.264;24.536;2024-03-08T04:21:47;99439.84;;;5.69;100.00
39793;BME280;26080;42.264;24.536;2024-03-08T04:24:13;99467.34;;;5.78;100.00
39793;BME280;26080;42.264;24.536;2024-03-08T04:26:38;99464.78;;;5.75;100.00
39793;BME280;26080;42.264;24.536;2024-03-08T04:29:03;99459.50;;;5.79;100.00
39793;BME280;26080;42.264;24.536;2024-03-08T04:31:29;99461.03;;;5.86;100.00
39793;BME280;26080;42.264;24.536;2024-03-08T04:33:56;99462.72;;;5.90;100.00
39793;BME280;26080;42.264;24.536;2024-03-08T04:36:22;99470.66;;;5.83;100.00
39793;BME280;26080;42.264;24.536;2024-03-08T04:38:48;99470.78;;;5.78;100.00
39793;BME280;26080;42.264;24.536;2024-03-08T04:41:14;99437.53;;;5.57;100.00
39793;BME280;26080;42.264;24.536;2024-03-08T04:43:39;99469.19;;;5.73;100.00
39793;BME280;26080;42.264;24.536;2024-03-08T04:46:05;99465.66;;;5.75;100.00
39793;BME280;26080;42.264;24.536;2024-03-08T04:48:31;99475.31;;;5.70;100.00
39793;BME280;26080;42.264;24.536;2024-03-08T04:50:56;99474.66;;;5.62;100.00
39793;BME280;26080;42.264;24.536;2024-03-08T04:53:22;99475.63;;;5.58;100.00
39793;BME280;26080;42.264;24.536;2024-03-08T04:55:48;99478.16;;;5.59;100.00
39793;BME280;26080;42.264;24.536;2024-03-08T04:58:14;99477.28;;;5.62;100.00
39793;BME280;26080;42.264;24.536;2024-03-08T05:00:40;99484.09;;;5.66;100.00
39793;BME280;26080;42.264;24.536;2024-03-08T05:03:06;99480.72;;;5.61;100.00
39793;BME280;26080;42.264;24.536;2024-03-08T05:05:31;99478.16;;;5.59;100.00
39793;BME280;26080;42.264;24.536;2024-03-08T05:07:58;99461.16;;;5.46;100.00
39793;BME280;26080;42.264;24.536;2024-03-08T05:10:23;99485.03;;;5.63;100.00
39793;BME280;26080;42.264;24.536;2024-03-08T05:12:49;99488.34;;;5.69;100.00
39793;BME280;26080;42.264;24.536;2024-03-08T05:15:14;99451.38;;;5.57;100.00
39793;BME280;26080;42.264;24.536;2024-03-08T05:17:40;99489.94;;;5.76;100.00
39793;BME280;26080;42.264;24.536;2024-03-08T05:20:07;99501.31;;;5.70;100.00
39793;BME280;26080;42.264;24.536;2024-03-08T05:22:33;99507.31;;;5.72;100.00
39793;BME280;26080;42.264;24.536;2024-03-08T05:24:59;99504.16;;;5.59;100.00
39793;BME280;26080;42.264;24.536;2024-03-08T05:27:24;99511.22;;;5.54;100.00
39793;BME280;26080;42.264;24.536;2024-03-08T05:29:50;99514.47;;;5.64;100.00
39793;BME280;26080;42.264;24.536;2024-03-08T05:32:15;99519.63;;;5.65;100.00
39793;BME280;26080;42.264;24.536;2024-03-08T05:34:41;99521.31;;;5.67;100.00
39793;BME280;26080;42.264;24.536;2024-03-08T05:37:06;99521.25;;;5.70;100.00
39793;BME280;26080;42.264;24.536;2024-03-08T05:39:32;99522.94;;;5.71;100.00
39793;BME280;26080;42.264;24.536;2024-03-08T05:41:57;99530.88;;;5.66;100.00
39793;BME280;26080;42.264;24.536;2024-03-08T05:44:23;99534.16;;;5.73;100.00
39793;BME280;26080;42.264;24.536;2024-03-08T05:46:48;99536.66;;;5.77;100.00
39793;BME280;26080;42.264;24.536;2024-03-08T05:49:14;99535.19;;;5.65;100.00
39793;BME280;26080;42.264;24.536;2024-03-08T05:51:40;99541.28;;;5.64;100.00
39793;BME280;26080;42.264;24.536;2024-03-08T05:54:07;99516.84;;;5.36;100.00
39793;BME280;26080;42.264;24.536;2024-03-08T05:56:35;99546.84;;;5.49;100.00
39793;BME280;26080;42.264;24.536;2024-03-08T05:59:01;99546.94;;;5.45;100.00
39793;BME280;26080;42.264;24.536;2024-03-08T06:01:27;99552.84;;;5.51;100.00
39793;BME280;26080;42.264;24.536;2024-03-08T06:03:53;99556.06;;;5.62;100.00
39793;BME280;26080;42.264;24.536;2024-03-08T06:06:21;99551.13;;;5.52;100.00
39793;BME280;26080;42.264;24.536;2024-03-08T06:08:47;99559.88;;;5.46;100.00
39793;BME280;26080;42.264;24.536;2024-03-08T06:11:14;99559.13;;;5.41;100.00
39793;BME280;26080;42.264;24.536;2024-03-08T06:13:40;99552.97;;;5.45;100.00
39793;BME280;26080;42.264;24.536;2024-03-08T06:16:05;99559.75;;;5.52;100.00
39793;BME280;26080;42.264;24.536;2024-03-08T06:18:36;99570.81;;;5.62;100.00
39793;BME280;26080;42.264;24.536;2024-03-08T06:21:05;99568.81;;;5.72;100.00
39793;BME280;26080;42.264;24.536;2024-03-08T06:23:34;99567.44;;;5.57;100.00
39793;BME280;26080;42.264;24.536;2024-03-08T06:26:06;99567.38;;;5.60;100.00
39793;BME280;26080;42.264;24.536;2024-03-08T06:28:32;99568.13;;;5.65;100.00
39793;BME280;26080;42.264;24.536;2024-03-08T06:30:58;99545.69;;;5.62;100.00
39793;BME280;26080;42.264;24.536;2024-03-08T06:33:24;99553.41;;;5.65;100.00
39793;BME280;26080;42.264;24.536;2024-03-08T06:35:52;99575.34;;;5.89;100.00
39793;BME280;26080;42.264;24.536;2024-03-08T06:38:17;99574.47;;;5.92;100.00
39793;BME280;26080;42.264;24.536;2024-03-08T06:40:43;99575.31;;;5.92;100.00
39793;BME280;26080;42.264;24.536;2024-03-08T06:43:09;99570.03;;;5.96;100.00
39793;BME280;26080;42.264;24.536;2024-03-08T06:45:36;99583.59;;;6.08;100.00
39793;BME280;26080;42.264;24.536;2024-03-08T06:48:03;99577.63;;;6.05;100.00
39793;BME280;26080;42.264;24.536;2024-03-08T06:50:29;99580.91;;;6.11;100.00
39793;BME280;26080;42.264;24.536;2024-03-08T06:52:54;99576.69;;;6.07;100.00
39793;BME280;26080;42.264;24.536;2024-03-08T06:55:20;99554.91;;;5.76;100.00
39793;BME280;26080;42.264;24.536;2024-03-08T06:57:45;99580.56;;;5.88;100.00
39793;BME280;26080;42.264;24.536;2024-03-08T07:00:11;99584.56;;;6.03;100.00
39793;BME280;26080;42.264;24.536;2024-03-08T07:02:40;99588.72;;;6.11;100.00
39793;BME280;26080;42.264;24.536;2024-03-08T07:05:06;99591.97;;;6.19;100.00
39793;BME280;26080;42.264;24.536;2024-03-08T07:07:36;99596.22;;;6.23;100.00
39793;BME280;26080;42.264;24.536;2024-03-08T07:10:04;99598.38;;;6.40;100.00
39793;BME280;26080;42.264;24.536;2024-03-08T07:12:29;99598.59;;;6.33;100.00
39793;BME280;26080;42.264;24.536;2024-03-08T07:14:55;99576.97;;;6.29;100.00
39793;BME280;26080;42.264;24.536;2024-03-08T07:17:20;99598.72;;;6.27;100.00
39793;BME280;26080;42.264;24.536;2024-03-08T07:19:46;99608.75;;;6.42;100.00
39793;BME280;26080;42.264;24.536;2024-03-08T07:22:11;99606.03;;;6.46;100.00
39793;BME280;26080;42.264;24.536;2024-03-08T07:24:37;99609.56;;;6.44;100.00
39793;BME280;26080;42.264;24.536;2024-03-08T07:27:35;99609.81;;;6.35;100.00
39793;BME280;26080;42.264;24.536;2024-03-08T07:30:02;99609.94;;;6.29;100.00
39793;BME280;26080;42.264;24.536;2024-03-08T07:32:28;99609.03;;;6.31;100.00
39793;BME280;26080;42.264;24.536;2024-03-08T07:34:55;99615.00;;;6.35;100.00
39793;BME280;26080;42.264;24.536;2024-03-08T07:37:21;99613.97;;;6.40;100.00
39793;BME280;26080;42.264;24.536;2024-03-08T07:39:47;99616.63;;;6.39;100.00
39793;BME280;26080;42.264;24.536;2024-03-08T07:42:13;99615.66;;;6.43;100.00
39793;BME280;26080;42.264;24.536;2024-03-08T07:44:38;99617.94;;;6.55;100.00
39793;BME280;26080;42.264;24.536;2024-03-08T07:47:04;99610.03;;;6.60;100.00
39793;BME280;26080;42.264;24.536;2024-03-08T07:49:30;99618.44;;;6.69;100.00
39793;BME280;26080;42.264;24.536;2024-03-08T07:51:56;99620.22;;;6.67;100.00
39793;BME280;26080;42.264;24.536;2024-03-08T07:54:23;99619.13;;;6.76;100.00
39793;BME280;26080;42.264;24.536;2024-03-08T07:56:48;99608.78;;;6.74;100.00
39793;BME280;26080;42.264;24.536;2024-03-08T07:59:14;99633.63;;;6.84;100.00
39793;BME280;26080;42.264;24.536;2024-03-08T08:01:40;99600.16;;;6.72;100.00
39793;BME280;26080;42.264;24.536;2024-03-08T08:04:05;99624.88;;;6.89;100.00
39793;BME280;26080;42.264;24.536;2024-03-08T08:06:31;99634.22;;;6.96;100.00
39793;BME280;26080;42.264;24.536;2024-03-08T08:09:00;99631.84;;;6.88;100.00
39793;BME280;26080;42.264;24.536;2024-03-08T08:11:26;99607.88;;;6.75;100.00
39793;BME280;26080;42.264;24.536;2024-03-08T08:13:54;99637.81;;;6.92;100.00
39793;BME280;26080;42.264;24.536;2024-03-08T08:16:20;99630.66;;;6.98;100.00
39793;BME280;26080;42.264;24.536;2024-03-08T08:18:45;99629.44;;;7.11;100.00
39793;BME280;26080;42.264;24.536;2024-03-08T08:21:11;99629.44;;;7.11;100.00
39793;BME280;26080;42.264;24.536;2024-03-08T08:23:36;99643.00;;;7.23;100.00
39793;BME280;26080;42.264;24.536;2024-03-08T08:26:03;99635.91;;;7.29;100.00
39793;BME280;26080;42.264;24.536;2024-03-08T08:28:28;99634.47;;;7.18;100.00
39793;BME280;26080;42.264;24.536;2024-03-08T08:30:54;99633.09;;;7.35;100.00
39793;BME280;26080;42.264;24.536;2024-03-08T08:33:20;99620.03;;;7.37;100.00
39793;BME280;26080;42.264;24.536;2024-03-08T08:35:45;99624.31;;;7.67;100.00
39793;BME280;26080;42.264;24.536;2024-03-08T08:38:13;99598.28;;;7.66;100.00
39793;BME280;26080;42.264;24.536;2024-03-08T08:40:38;99635.56;;;7.97;100.00
39793;BME280;26080;42.264;24.536;2024-03-08T08:43:03;99633.94;;;7.95;100.00
39793;BME280;26080;42.264;24.536;2024-03-08T08:45:32;99630.94;;;8.06;100.00
39793;BME280;26080;42.264;24.536;2024-03-08T08:47:58;99639.78;;;8.01;100.00
39793;BME280;26080;42.264;24.536;2024-03-08T08:50:25;99636.75;;;7.87;100.00
39793;BME280;26080;42.264;24.536;2024-03-08T08:52:52;99634.16;;;7.87;100.00
39793;BME280;26080;42.264;24.536;2024-03-08T08:55:18;99632.97;;;7.97;100.00
39793;BME280;26080;42.264;24.536;2024-03-08T08:57:46;99637.97;;;8.03;100.00
39793;BME280;26080;42.264;24.536;2024-03-08T09:00:13;99639.69;;;8.05;100.00
39793;BME280;26080;42.264;24.536;2024-03-08T09:02:40;99612.38;;;7.88;100.00
39793;BME280;26080;42.264;24.536;2024-03-08T09:05:06;99632.88;;;8.00;100.00
39793;BME280;26080;42.264;24.536;2024-03-08T09:07:35;99640.69;;;8.00;100.00
39793;BME280;26080;42.264;24.536;2024-03-08T09:10:00;99622.72;;;7.91;100.00
39793;BME280;26080;42.264;24.536;2024-03-08T09:12:26;99632.66;;;8.07;100.00
39793;BME280;26080;42.264;24.536;2024-03-08T09:14:52;99608.50;;;7.73;100.00
39793;BME280;26080;42.264;24.536;2024-03-08T09:17:17;99632.25;;;7.92;100.00
39793;BME280;26080;42.264;24.536;2024-03-08T09:19:46;99638.25;;;7.94;100.00
39793;BME280;26080;42.264;24.536;2024-03-08T09:22:13;99617.16;;;8.02;100.00
39793;BME280;26080;42.264;24.536;2024-03-08T09:24:38;99639.06;;;8.24;100.00
39793;BME280;26080;42.264;24.536;2024-03-08T09:27:04;99643.09;;;8.35;100.00
39793;BME280;26080;42.264;24.536;2024-03-08T09:29:29;99642.44;;;8.54;100.00
39793;BME280;26080;42.264;24.536;2024-03-08T09:31:55;99638.72;;;8.61;100.00
39793;BME280;26080;42.264;24.536;2024-03-08T09:34:21;99600.91;;;8.20;100.00
39793;BME280;26080;42.264;24.536;2024-03-08T09:36:46;99612.56;;;8.38;100.00
39793;BME280;26080;42.264;24.536;2024-03-08T09:39:12;99648.16;;;8.66;100.00
39793;BME280;26080;42.264;24.536;2024-03-08T09:41:43;99642.53;;;8.78;100.00
39793;BME280;26080;42.264;24.536;2024-03-08T09:44:09;99650.75;;;8.92;100.00
39793;BME280;26080;42.264;24.536;2024-03-08T09:46:34;99642.97;;;9.14;100.00
39793;BME280;26080;42.264;24.536;2024-03-08T09:49:00;99639.41;;;9.16;100.00
39793;BME280;26080;42.264;24.536;2024-03-08T09:51:28;99649.63;;;9.23;100.00
39793;BME280;26080;42.264;24.536;2024-03-08T09:53:54;99637.59;;;9.18;100.00
39793;BME280;26080;42.264;24.536;2024-03-08T09:56:21;99621.94;;;9.18;100.00
39793;BME280;26080;42.264;24.536;2024-03-08T09:58:48;99641.19;;;9.39;100.00
39793;BME280;26080;42.264;24.536;2024-03-08T10:01:43;99643.53;;;9.69;100.00
39793;BME280;26080;42.264;24.536;2024-03-08T10:04:09;99638.94;;;9.75;100.00
39793;BME280;26080;42.264;24.536;2024-03-08T10:06:35;99646.13;;;9.92;100.00
39793;BME280;26080;42.264;24.536;2024-03-08T10:09:01;99645.50;;;9.86;100.00
39793;BME280;26080;42.264;24.536;2024-03-08T10:11:27;99637.72;;;9.84;100.00
39793;BME280;26080;42.264;24.536;2024-03-08T10:13:53;99641.56;;;9.75;100.00
39793;BME280;26080;42.264;24.536;2024-03-08T10:16:18;99624.00;;;9.56;100.00
39793;BME280;26080;42.264;24.536;2024-03-08T10:18:45;99640.72;;;9.75;100.00
39793;BME280;26080;42.264;24.536;2024-03-08T10:21:11;99631.28;;;9.93;100.00
39793;BME280;26080;42.264;24.536;2024-03-08T10:23:36;99622.66;;;9.91;100.00
39793;BME280;26080;42.264;24.536;2024-03-08T10:28:44;99623.19;;;10.63;100.00
39793;BME280;26080;42.264;24.536;2024-03-08T10:31:10;99622.81;;;10.72;100.00
39793;BME280;26080;42.264;24.536;2024-03-08T10:33:35;99623.84;;;10.88;100.00
39793;BME280;26080;42.264;24.536;2024-03-08T10:36:03;99626.94;;;10.98;100.00
39793;BME280;26080;42.264;24.536;2024-03-08T10:38:31;99610.72;;;11.09;100.00
39793;BME280;26080;42.264;24.536;2024-03-08T10:40:58;99609.00;;;11.08;100.00
39793;BME280;26080;42.264;24.536;2024-03-08T10:43:24;99612.59;;;11.25;100.00
39793;BME280;26080;42.264;24.536;2024-03-08T10:48:55;99617.66;;;11.10;100.00
39793;BME280;26080;42.264;24.536;2024-03-08T10:51:24;99611.16;;;11.00;100.00
39793;BME280;26080;42.264;24.536;2024-03-08T10:53:52;99611.41;;;10.93;100.00
39793;BME280;26080;42.264;24.536;2024-03-08T10:56:17;99612.19;;;10.75;100.00
39793;BME280;26080;42.264;24.536;2024-03-08T10:58:43;99618.03;;;10.61;100.00
39793;BME280;26080;42.264;24.536;2024-03-08T11:01:09;99611.94;;;10.61;100.00
39793;BME280;26080;42.264;24.536;2024-03-08T11:03:49;99617.63;;;10.50;100.00
39793;BME280;26080;42.264;24.536;2024-03-08T11:06:18;99590.75;;;10.25;100.00
39793;BME280;26080;42.264;24.536;2024-03-08T11:08:48;99612.31;;;10.31;100.00
39793;BME280;26080;42.264;24.536;2024-03-08T11:13:56;99563.13;;;9.96;100.00
39793;BME280;26080;42.264;24.536;2024-03-08T11:19:07;99575.78;;;10.06;100.00
39793;BME280;26080;42.264;24.536;2024-03-08T11:21:57;99602.31;;;10.19;100.00
39793;BME280;26080;42.264;24.536;2024-03-08T11:24:23;99576.63;;;10.07;100.00
39793;BME280;26080;42.264;24.536;2024-03-08T11:26:49;99599.75;;;10.18;100.00
39793;BME280;26080;42.264;24.536;2024-03-08T11:34:31;99575.41;;;9.50;100.00
39793;BME280;26080;42.264;24.536;2024-03-08T11:36:58;99595.59;;;9.46;100.00
39793;BME280;26080;42.264;24.536;2024-03-08T11:39:24;99602.34;;;8.82;100.00
39793;BME280;26080;42.264;24.536;2024-03-08T11:41:49;99593.84;;;9.00;100.00
39793;BME280;26080;42.264;24.536;2024-03-08T11:44:15;99585.25;;;8.97;100.00
39793;BME280;26080;42.264;24.536;2024-03-08T11:46:42;99586.41;;;9.13;100.00
39793;BME280;26080;42.264;24.536;2024-03-08T11:49:12;99538.09;;;8.76;100.00
39793;BME280;26080;42.264;24.536;2024-03-08T11:51:38;99578.91;;;9.27;100.00
39793;BME280;26080;42.264;24.536;2024-03-08T11:54:03;99581.13;;;9.38;100.00
39793;BME280;26080;42.264;24.536;2024-03-08T11:56:31;99579.75;;;9.51;100.00
39793;BME280;26080;42.264;24.536;2024-03-08T11:58:57;99579.28;;;9.40;100.00
39793;BME280;26080;42.264;24.536;2024-03-08T12:01:23;99579.06;;;9.46;100.00
39793;BME280;26080;42.264;24.536;2024-03-08T12:03:58;99576.84;;;9.80;100.00
39793;BME280;26080;42.264;24.536;2024-03-08T12:06:25;99551.09;;;9.48;100.00
39793;BME280;26080;42.264;24.536;2024-03-08T12:08:51;99570.31;;;9.47;100.00
39793;BME280;26080;42.264;24.536;2024-03-08T12:11:19;99572.47;;;9.36;100.00
39793;BME280;26080;42.264;24.536;2024-03-08T12:13:49;99571.00;;;9.29;100.00
39793;BME280;26080;42.264;24.536;2024-03-08T12:16:17;99568.84;;;9.16;100.00
39793;BME280;26080;42.264;24.536;2024-03-08T12:18:44;99562.94;;;9.35;100.00
39793;BME280;26080;42.264;24.536;2024-03-08T12:21:11;99551.63;;;9.56;100.00
39793;BME280;26080;42.264;24.536;2024-03-08T12:23:39;99555.78;;;9.84;100.00
39793;BME280;26080;42.264;24.536;2024-03-08T12:26:14;99555.47;;;9.91;100.00
39793;BME280;26080;42.264;24.536;2024-03-08T12:28:41;99547.69;;;9.46;100.00
39793;BME280;26080;42.264;24.536;2024-03-08T12:31:08;99552.69;;;9.52;100.00
39793;BME280;26080;42.264;24.536;2024-03-08T12:33:53;99552.66;;;9.96;100.00
39793;BME280;26080;42.264;24.536;2024-03-08T12:36:19;99549.63;;;10.06;100.00
39793;BME280;26080;42.264;24.536;2024-03-08T12:38:48;99552.44;;;10.02;100.00
39793;BME280;26080;42.264;24.536;2024-03-08T12:41:15;99557.41;;;10.08;100.00
39793;BME280;26080;42.264;24.536;2024-03-08T12:43:40;99555.34;;;9.50;100.00
39793;BME280;26080;42.264;24.536;2024-03-08T12:46:06;99556.88;;;9.56;100.00
39793;BME280;26080;42.264;24.536;2024-03-08T12:48:37;99551.22;;;9.67;100.00
39793;BME280;26080;42.264;24.536;2024-03-08T12:51:08;99553.78;;;9.90;100.00
39793;BME280;26080;42.264;24.536;2024-03-08T12:53:34;99555.56;;;10.10;100.00
39793;BME280;26080;42.264;24.536;2024-03-08T12:56:00;99554.19;;;10.23;100.00
39793;BME280;26080;42.264;24.536;2024-03-08T12:58:27;99553.94;;;9.86;100.00
39793;BME280;26080;42.264;24.536;2024-03-08T13:00:52;99531.44;;;9.38;100.00
39793;BME280;26080;42.264;24.536;2024-03-08T13:03:18;99554.25;;;9.56;100.00